sensor_id;sensor_type;location;lat;lon;timestamp;P1;P2;P0
79117;PMS7003;68523;51.336;-0.846;2023-08-07T00:00:00;85;79;
79117;PMS7003;68523;51.336;-0.846;2023-08-07T00:03:00;85;79;
79117;PMS7003;68523;51.336;-0.846;2023-08-07T00:06:00;85;84;
79117;PMS7003;68523;51.336;-0.846;2023-08-07T00:09:00;85;84;
79117;PMS7003;68523;51.336;-0.846;2023-08-07T00:12:00;79;70;
79117;PMS7003;68523;51.336;-0.846;2023-08-07T00:15:00;81;73;
79117;PMS7003;68523;51.336;-0.846;2023-08-07T00:18:00;81;73;
79117;PMS7003;68523;51.336;-0.846;2023-08-07T00:21:00;87;85;
79117;PMS7003;68523;51.336;-0.846;2023-08-07T00:24:00;87;85;
79117;PMS7003;68523;51.336;-0.846;2023-08-07T00:27:00;78;66;
79117;PMS7003;68523;51.336;-0.846;2023-08-07T00:30:00;78;67;
79117;PMS7003;68523;51.336;-0.846;2023-08-07T00:33:00;78;67;
79117;PMS7003;68523;51.336;-0.846;2023-08-07T00:36:00;79;68;
79117;PMS7003;68523;51.336;-0.846;2023-08-07T00:39:00;79;68;
79117;PMS7003;68523;51.336;-0.846;2023-08-07T00:42:00;78;68;
79117;PMS7003;68523;51.336;-0.846;2023-08-07T00:45:00;73;61;
79117;PMS7003;68523;51.336;-0.846;2023-08-07T00:48:00;73;61;
79117;PMS7003;68523;51.336;-0.846;2023-08-07T00:51:00;78;69;
79117;PMS7003;68523;51.336;-0.846;2023-08-07T00:54:00;78;69;
79117;PMS7003;68523;51.336;-0.846;2023-08-07T00:57:03;81;72;
79117;PMS7003;68523;51.336;-0.846;2023-08-07T01:00:00;81;72;
79117;PMS7003;68523;51.336;-0.846;2023-08-07T01:03:00;69;57;
79117;PMS7003;68523;51.336;-0.846;2023-08-07T01:06:00;81;73;
79117;PMS7003;68523;51.336;-0.846;2023-08-07T01:09:00;81;73;
79117;PMS7003;68523;51.336;-0.846;2023-08-07T01:12:02;75;64;
79117;PMS7003;68523;51.336;-0.846;2023-08-07T01:15:02;75;64;
79117;PMS7003;68523;51.336;-0.846;2023-08-07T01:18:00;82;76;
79117;PMS7003;68523;51.336;-0.846;2023-08-07T01:21:00;79;68;
79117;PMS7003;68523;51.336;-0.846;2023-08-07T01:24:00;79;68;
79117;PMS7003;68523;51.336;-0.846;2023-08-07T01:27:09;89;87;
79117;PMS7003;68523;51.336;-0.846;2023-08-07T01:30:02;89;87;
79117;PMS7003;68523;51.336;-0.846;2023-08-07T01:33:04;87;85;
79117;PMS7003;68523;51.336;-0.846;2023-08-07T01:36:01;93;92;
79117;PMS7003;68523;51.336;-0.846;2023-08-07T01:39:00;93;92;
79117;PMS7003;68523;51.336;-0.846;2023-08-07T01:42:00;93;91;
79117;PMS7003;68523;51.336;-0.846;2023-08-07T01:45:00;93;91;
79117;PMS7003;68523;51.336;-0.846;2023-08-07T01:48:00;85;81;
79117;PMS7003;68523;51.336;-0.846;2023-08-07T01:51:00;92;91;
79117;PMS7003;68523;51.336;-0.846;2023-08-07T01:54:00;92;91;
79117;PMS7003;68523;51.336;-0.846;2023-08-07T01:57:00;95;95;
79117;PMS7003;68523;51.336;-0.846;2023-08-07T02:00:00;95;95;
79117;PMS7003;68523;51.336;-0.846;2023-08-07T02:03:00;92;91;
79117;PMS7003;68523;51.336;-0.846;2023-08-07T02:06:00;105;105;
79117;PMS7003;68523;51.336;-0.846;2023-08-07T02:09:00;105;105;
79117;PMS7003;68523;51.336;-0.846;2023-08-07T02:12:00;90;87;
79117;PMS7003;68523;51.336;-0.846;2023-08-07T02:15:00;90;87;
79117;PMS7003;68523;51.336;-0.846;2023-08-07T02:18:00;83;78;
79117;PMS7003;68523;51.336;-0.846;2023-08-07T02:21:00;77;67;
79117;PMS7003;68523;51.336;-0.846;2023-08-07T02:24:00;77;67;
79117;PMS7003;68523;51.336;-0.846;2023-08-07T02:27:00;81;73;
79117;PMS7003;68523;51.336;-0.846;2023-08-07T02:30:00;81;73;
79117;PMS7003;68523;51.336;-0.846;2023-08-07T02:33:00;83;75;
79117;PMS7003;68523;51.336;-0.846;2023-08-07T02:36:00;74;61;
79117;PMS7003;68523;51.336;-0.846;2023-08-07T02:39:00;74;61;
79117;PMS7003;68523;51.336;-0.846;2023-08-07T02:42:00;81;73;
79117;PMS7003;68523;51.336;-0.846;2023-08-07T02:45:00;81;73;
79117;PMS7003;68523;51.336;-0.846;2023-08-07T02:48:00;77;67;
79117;PMS7003;68523;51.336;-0.846;2023-08-07T02:51:00;83;75;
79117;PMS7003;68523;51.336;-0.846;2023-08-07T02:54:00;83;75;
79117;PMS7003;68523;51.336;-0.846;2023-08-07T02:57:00;82;75;
79117;PMS7003;68523;51.336;-0.846;2023-08-07T03:00:00;82;75;
79117;PMS7003;68523;51.336;-0.846;2023-08-07T03:03:00;75;63;
79117;PMS7003;68523;51.336;-0.846;2023-08-07T03:06:00;81;70;
79117;PMS7003;68523;51.336;-0.846;2023-08-07T03:09:00;81;70;
79117;PMS7003;68523;51.336;-0.846;2023-08-07T03:12:00;84;73;
79117;PMS7003;68523;51.336;-0.846;2023-08-07T03:15:00;84;73;
79117;PMS7003;68523;51.336;-0.846;2023-08-07T03:18:00;78;66;
79117;PMS7003;68523;51.336;-0.846;2023-08-07T03:21:00;80;68;
79117;PMS7003;68523;51.336;-0.846;2023-08-07T03:24:00;80;68;
79117;PMS7003;68523;51.336;-0.846;2023-08-07T03:27:00;79;67;
79117;PMS7003;68523;51.336;-0.846;2023-08-07T03:30:00;79;67;
79117;PMS7003;68523;51.336;-0.846;2023-08-07T03:33:00;75;64;
79117;PMS7003;68523;51.336;-0.846;2023-08-07T03:36:00;78;65;
79117;PMS7003;68523;51.336;-0.846;2023-08-07T03:39:00;78;65;
79117;PMS7003;68523;51.336;-0.846;2023-08-07T03:42:00;77;64;
79117;PMS7003;68523;51.336;-0.846;2023-08-07T03:45:00;77;64;
79117;PMS7003;68523;51.336;-0.846;2023-08-07T03:48:00;81;70;
79117;PMS7003;68523;51.336;-0.846;2023-08-07T03:51:01;83;75;
79117;PMS7003;68523;51.336;-0.846;2023-08-07T03:54:00;83;75;
79117;PMS7003;68523;51.336;-0.846;2023-08-07T03:57:00;77;66;
79117;PMS7003;68523;51.336;-0.846;2023-08-07T04:00:00;77;66;
79117;PMS7003;68523;51.336;-0.846;2023-08-07T04:03:00;78;65;
79117;PMS7003;68523;51.336;-0.846;2023-08-07T04:06:00;77;65;
79117;PMS7003;68523;51.336;-0.846;2023-08-07T04:09:00;77;65;
79117;PMS7003;68523;51.336;-0.846;2023-08-07T04:12:00;76;63;
79117;PMS7003;68523;51.336;-0.846;2023-08-07T04:15:00;76;63;
79117;PMS7003;68523;51.336;-0.846;2023-08-07T04:18:00;79;68;
79117;PMS7003;68523;51.336;-0.846;2023-08-07T04:21:00;79;66;
79117;PMS7003;68523;51.336;-0.846;2023-08-07T04:24:00;79;66;
79117;PMS7003;68523;51.336;-0.846;2023-08-07T04:27:00;69;56;
79117;PMS7003;68523;51.336;-0.846;2023-08-07T04:30:00;69;56;
79117;PMS7003;68523;51.336;-0.846;2023-08-07T04:33:00;77;66;
79117;PMS7003;68523;51.336;-0.846;2023-08-07T04:36:00;78;68;
79117;PMS7003;68523;51.336;-0.846;2023-08-07T04:39:00;78;68;
79117;PMS7003;68523;51.336;-0.846;2023-08-07T04:42:00;75;62;
79117;PMS7003;68523;51.336;-0.846;2023-08-07T04:45:00;75;62;
79117;PMS7003;68523;51.336;-0.846;2023-08-07T04:48:00;80;65;
79117;PMS7003;68523;51.336;-0.846;2023-08-07T04:51:00;76;63;
79117;PMS7003;68523;51.336;-0.846;2023-08-07T04:54:00;76;63;
79117;PMS7003;68523;51.336;-0.846;2023-08-07T04:57:00;76;63;
79117;PMS7003;68523;51.336;-0.846;2023-08-07T05:00:00;76;63;
79117;PMS7003;68523;51.336;-0.846;2023-08-07T05:03:00;79;66;
79117;PMS7003;68523;51.336;-0.846;2023-08-07T05:06:00;80;69;
79117;PMS7003;68523;51.336;-0.846;2023-08-07T05:09:00;80;69;
79117;PMS7003;68523;51.336;-0.846;2023-08-07T05:12:00;82;70;
79117;PMS7003;68523;51.336;-0.846;2023-08-07T05:15:00;82;70;
79117;PMS7003;68523;51.336;-0.846;2023-08-07T05:18:00;75;61;
79117;PMS7003;68523;51.336;-0.846;2023-08-07T05:21:00;80;70;
79117;PMS7003;68523;51.336;-0.846;2023-08-07T05:24:00;80;70;
79117;PMS7003;68523;51.336;-0.846;2023-08-07T05:27:00;81;71;
79117;PMS7003;68523;51.336;-0.846;2023-08-07T05:30:00;81;71;
79117;PMS7003;68523;51.336;-0.846;2023-08-07T05:33:00;82;73;
79117;PMS7003;68523;51.336;-0.846;2023-08-07T05:36:00;87;81;
79117;PMS7003;68523;51.336;-0.846;2023-08-07T05:39:00;87;81;
79117;PMS7003;68523;51.336;-0.846;2023-08-07T05:42:00;75;62;
79117;PMS7003;68523;51.336;-0.846;2023-08-07T05:45:00;75;62;
79117;PMS7003;68523;51.336;-0.846;2023-08-07T05:48:00;69;57;
79117;PMS7003;68523;51.336;-0.846;2023-08-07T05:51:00;57;48;
79117;PMS7003;68523;51.336;-0.846;2023-08-07T05:54:00;57;48;
79117;PMS7003;68523;51.336;-0.846;2023-08-07T05:57:00;8;8;
79117;PMS7003;68523;51.336;-0.846;2023-08-07T06:00:00;8;8;
79117;PMS7003;68523;51.336;-0.846;2023-08-07T06:03:00;10;9;
79117;PMS7003;68523;51.336;-0.846;2023-08-07T06:06:00;6;4;
79117;PMS7003;68523;51.336;-0.846;2023-08-07T06:09:00;6;4;
79117;PMS7003;68523;51.336;-0.846;2023-08-07T06:12:00;4;4;
79117;PMS7003;68523;51.336;-0.846;2023-08-07T06:15:00;4;4;
79117;PMS7003;68523;51.336;-0.846;2023-08-07T06:18:00;7;6;
79117;PMS7003;68523;51.336;-0.846;2023-08-07T06:21:00;6;5;
79117;PMS7003;68523;51.336;-0.846;2023-08-07T06:24:00;6;5;
79117;PMS7003;68523;51.336;-0.846;2023-08-07T06:27:01;10;8;
79117;PMS7003;68523;51.336;-0.846;2023-08-07T06:30:00;10;8;
79117;PMS7003;68523;51.336;-0.846;2023-08-07T06:33:00;16;16;
79117;PMS7003;68523;51.336;-0.846;2023-08-07T06:36:00;18;16;
79117;PMS7003;68523;51.336;-0.846;2023-08-07T06:39:00;18;16;
79117;PMS7003;68523;51.336;-0.846;2023-08-07T06:42:00;12;12;
79117;PMS7003;68523;51.336;-0.846;2023-08-07T06:45:00;12;12;
79117;PMS7003;68523;51.336;-0.846;2023-08-07T06:48:00;12;12;
79117;PMS7003;68523;51.336;-0.846;2023-08-07T06:51:00;13;13;
79117;PMS7003;68523;51.336;-0.846;2023-08-07T06:54:00;13;13;
79117;PMS7003;68523;51.336;-0.846;2023-08-07T06:57:00;16;16;
79117;PMS7003;68523;51.336;-0.846;2023-08-07T07:00:00;16;16;
79117;PMS7003;68523;51.336;-0.846;2023-08-07T07:03:00;18;17;
79117;PMS7003;68523;51.336;-0.846;2023-08-07T07:06:00;11;11;
79117;PMS7003;68523;51.336;-0.846;2023-08-07T07:09:00;11;11;
79117;PMS7003;68523;51.336;-0.846;2023-08-07T07:12:00;9;8;
79117;PMS7003;68523;51.336;-0.846;2023-08-07T07:15:00;9;8;
79117;PMS7003;68523;51.336;-0.846;2023-08-07T07:18:00;3;3;
79117;PMS7003;68523;51.336;-0.846;2023-08-07T07:21:00;3;3;
79117;PMS7003;68523;51.336;-0.846;2023-08-07T07:24:00;3;3;
79117;PMS7003;68523;51.336;-0.846;2023-08-07T07:27:00;4;4;
79117;PMS7003;68523;51.336;-0.846;2023-08-07T07:30:00;4;4;
79117;PMS7003;68523;51.336;-0.846;2023-08-07T07:33:00;4;4;
79117;PMS7003;68523;51.336;-0.846;2023-08-07T07:36:00;2;2;
79117;PMS7003;68523;51.336;-0.846;2023-08-07T07:39:00;2;2;
79117;PMS7003;68523;51.336;-0.846;2023-08-07T07:42:01;3;3;
79117;PMS7003;68523;51.336;-0.846;2023-08-07T07:45:00;3;3;
79117;PMS7003;68523;51.336;-0.846;2023-08-07T07:48:00;5;4;
79117;PMS7003;68523;51.336;-0.846;2023-08-07T07:51:00;5;4;
79117;PMS7003;68523;51.336;-0.846;2023-08-07T07:54:00;4;4;
79117;PMS7003;68523;51.336;-0.846;2023-08-07T07:57:00;5;5;
79117;PMS7003;68523;51.336;-0.846;2023-08-07T08:00:00;5;5;
79117;PMS7003;68523;51.336;-0.846;2023-08-07T08:03:00;13;13;
79117;PMS7003;68523;51.336;-0.846;2023-08-07T08:06:00;13;13;
79117;PMS7003;68523;51.336;-0.846;2023-08-07T08:09:00;16;16;
79117;PMS7003;68523;51.336;-0.846;2023-08-07T08:12:00;21;21;
79117;PMS7003;68523;51.336;-0.846;2023-08-07T08:15:00;21;21;
79117;PMS7003;68523;51.336;-0.846;2023-08-07T08:18:00;29;28;
79117;PMS7003;68523;51.336;-0.846;2023-08-07T08:21:00;29;28;
79117;PMS7003;68523;51.336;-0.846;2023-08-07T08:24:00;30;30;
79117;PMS7003;68523;51.336;-0.846;2023-08-07T08:27:00;38;35;
79117;PMS7003;68523;51.336;-0.846;2023-08-07T08:30:00;38;35;
79117;PMS7003;68523;51.336;-0.846;2023-08-07T08:33:00;28;26;
79117;PMS7003;68523;51.336;-0.846;2023-08-07T08:36:00;28;26;
79117;PMS7003;68523;51.336;-0.846;2023-08-07T08:39:00;37;33;
79117;PMS7003;68523;51.336;-0.846;2023-08-07T08:42:00;54;46;
79117;PMS7003;68523;51.336;-0.846;2023-08-07T08:45:00;54;46;
79117;PMS7003;68523;51.336;-0.846;2023-08-07T08:48:01;66;55;
79117;PMS7003;68523;51.336;-0.846;2023-08-07T08:51:00;66;55;
79117;PMS7003;68523;51.336;-0.846;2023-08-07T08:54:00;44;36;
79117;PMS7003;68523;51.336;-0.846;2023-08-07T08:57:00;59;48;
79117;PMS7003;68523;51.336;-0.846;2023-08-07T09:00:00;59;48;
79117;PMS7003;68523;51.336;-0.846;2023-08-07T09:03:00;64;52;
79117;PMS7003;68523;51.336;-0.846;2023-08-07T09:06:00;64;52;
79117;PMS7003;68523;51.336;-0.846;2023-08-07T09:09:00;62;46;
79117;PMS7003;68523;51.336;-0.846;2023-08-07T09:12:00;53;43;
79117;PMS7003;68523;51.336;-0.846;2023-08-07T09:15:01;53;43;
79117;PMS7003;68523;51.336;-0.846;2023-08-07T09:18:00;62;51;
79117;PMS7003;68523;51.336;-0.846;2023-08-07T09:21:00;62;51;
79117;PMS7003;68523;51.336;-0.846;2023-08-07T09:24:00;54;46;
79117;PMS7003;68523;51.336;-0.846;2023-08-07T09:27:00;48;41;
79117;PMS7003;68523;51.336;-0.846;2023-08-07T09:30:00;48;41;
79117;PMS7003;68523;51.336;-0.846;2023-08-07T09:33:00;48;41;
79117;PMS7003;68523;51.336;-0.846;2023-08-07T09:36:00;48;41;
79117;PMS7003;68523;51.336;-0.846;2023-08-07T09:39:00;52;44;
79117;PMS7003;68523;51.336;-0.846;2023-08-07T09:42:00;47;40;
79117;PMS7003;68523;51.336;-0.846;2023-08-07T09:45:00;47;40;
79117;PMS7003;68523;51.336;-0.846;2023-08-07T09:48:00;67;54;
79117;PMS7003;68523;51.336;-0.846;2023-08-07T09:51:00;67;54;
79117;PMS7003;68523;51.336;-0.846;2023-08-07T09:54:00;60;50;
79117;PMS7003;68523;51.336;-0.846;2023-08-07T09:57:00;45;39;
79117;PMS7003;68523;51.336;-0.846;2023-08-07T10:00:00;45;39;
79117;PMS7003;68523;51.336;-0.846;2023-08-07T10:03:00;13;13;
79117;PMS7003;68523;51.336;-0.846;2023-08-07T10:06:00;13;13;
79117;PMS7003;68523;51.336;-0.846;2023-08-07T10:09:00;53;44;
79117;PMS7003;68523;51.336;-0.846;2023-08-07T10:12:00;46;40;
79117;PMS7003;68523;51.336;-0.846;2023-08-07T10:15:00;46;40;
79117;PMS7003;68523;51.336;-0.846;2023-08-07T10:18:00;6;6;
79117;PMS7003;68523;51.336;-0.846;2023-08-07T10:21:00;6;6;
79117;PMS7003;68523;51.336;-0.846;2023-08-07T10:24:00;4;4;
79117;PMS7003;68523;51.336;-0.846;2023-08-07T10:27:00;2;2;
79117;PMS7003;68523;51.336;-0.846;2023-08-07T10:30:01;2;2;
79117;PMS7003;68523;51.336;-0.846;2023-08-07T10:33:00;5;5;
79117;PMS7003;68523;51.336;-0.846;2023-08-07T10:36:00;5;5;
79117;PMS7003;68523;51.336;-0.846;2023-08-07T10:39:05;3;3;
79117;PMS7003;68523;51.336;-0.846;2023-08-07T10:42:00;4;4;
79117;PMS7003;68523;51.336;-0.846;2023-08-07T10:45:00;4;4;
79117;PMS7003;68523;51.336;-0.846;2023-08-07T10:48:01;66;54;
79117;PMS7003;68523;51.336;-0.846;2023-08-07T10:51:02;66;54;
79117;PMS7003;68523;51.336;-0.846;2023-08-07T10:54:00;51;44;
79117;PMS7003;68523;51.336;-0.846;2023-08-07T10:57:00;34;26;
79117;PMS7003;68523;51.336;-0.846;2023-08-07T11:00:01;34;26;
79117;PMS7003;68523;51.336;-0.846;2023-08-07T11:03:00;4;4;
79117;PMS7003;68523;51.336;-0.846;2023-08-07T11:06:00;4;4;
79117;PMS7003;68523;51.336;-0.846;2023-08-07T11:09:00;2;1;
79117;PMS7003;68523;51.336;-0.846;2023-08-07T11:12:00;4;4;
79117;PMS7003;68523;51.336;-0.846;2023-08-07T11:15:00;4;4;
79117;PMS7003;68523;51.336;-0.846;2023-08-07T11:18:00;23;23;
79117;PMS7003;68523;51.336;-0.846;2023-08-07T11:21:00;23;23;
79117;PMS7003;68523;51.336;-0.846;2023-08-07T11:24:00;46;40;
79117;PMS7003;68523;51.336;-0.846;2023-08-07T11:27:00;2;1;
79117;PMS7003;68523;51.336;-0.846;2023-08-07T11:30:00;2;1;
79117;PMS7003;68523;51.336;-0.846;2023-08-07T11:33:00;19;19;
79117;PMS7003;68523;51.336;-0.846;2023-08-07T11:36:00;19;19;
79117;PMS7003;68523;51.336;-0.846;2023-08-07T11:39:00;2;2;
79117;PMS7003;68523;51.336;-0.846;2023-08-07T11:42:00;68;58;
79117;PMS7003;68523;51.336;-0.846;2023-08-07T11:45:01;68;58;
79117;PMS7003;68523;51.336;-0.846;2023-08-07T11:48:00;4;2;
79117;PMS7003;68523;51.336;-0.846;2023-08-07T11:51:00;4;2;
79117;PMS7003;68523;51.336;-0.846;2023-08-07T11:54:00;9;8;
79117;PMS7003;68523;51.336;-0.846;2023-08-07T11:57:00;2;2;
79117;PMS7003;68523;51.336;-0.846;2023-08-07T12:00:00;2;2;
79117;PMS7003;68523;51.336;-0.846;2023-08-07T12:03:00;4;3;
79117;PMS7003;68523;51.336;-0.846;2023-08-07T12:06:02;4;3;
79117;PMS7003;68523;51.336;-0.846;2023-08-07T12:09:00;28;28;
79117;PMS7003;68523;51.336;-0.846;2023-08-07T12:12:00;1;1;
79117;PMS7003;68523;51.336;-0.846;2023-08-07T12:15:00;1;1;
79117;PMS7003;68523;51.336;-0.846;2023-08-07T12:18:00;2;2;
79117;PMS7003;68523;51.336;-0.846;2023-08-07T12:21:00;2;2;
79117;PMS7003;68523;51.336;-0.846;2023-08-07T12:24:00;3;2;
79117;PMS7003;68523;51.336;-0.846;2023-08-07T12:27:00;10;9;
79117;PMS7003;68523;51.336;-0.846;2023-08-07T12:30:00;10;9;
79117;PMS7003;68523;51.336;-0.846;2023-08-07T12:33:00;3;2;
79117;PMS7003;68523;51.336;-0.846;2023-08-07T12:36:00;3;2;
79117;PMS7003;68523;51.336;-0.846;2023-08-07T12:39:00;2;2;
79117;PMS7003;68523;51.336;-0.846;2023-08-07T12:42:00;0;0;
79117;PMS7003;68523;51.336;-0.846;2023-08-07T12:45:00;0;0;
79117;PMS7003;68523;51.336;-0.846;2023-08-07T12:48:00;2;2;
79117;PMS7003;68523;51.336;-0.846;2023-08-07T12:51:00;2;2;
79117;PMS7003;68523;51.336;-0.846;2023-08-07T12:54:00;1;1;
79117;PMS7003;68523;51.336;-0.846;2023-08-07T12:57:00;1;1;
79117;PMS7003;68523;51.336;-0.846;2023-08-07T13:00:00;1;1;
79117;PMS7003;68523;51.336;-0.846;2023-08-07T13:03:00;2;2;
79117;PMS7003;68523;51.336;-0.846;2023-08-07T13:06:00;2;2;
79117;PMS7003;68523;51.336;-0.846;2023-08-07T13:09:00;1;1;
79117;PMS7003;68523;51.336;-0.846;2023-08-07T13:12:00;1;1;
79117;PMS7003;68523;51.336;-0.846;2023-08-07T13:15:00;1;1;
79117;PMS7003;68523;51.336;-0.846;2023-08-07T13:18:00;3;1;
79117;PMS7003;68523;51.336;-0.846;2023-08-07T13:21:00;3;1;
79117;PMS7003;68523;51.336;-0.846;2023-08-07T13:24:00;4;2;
79117;PMS7003;68523;51.336;-0.846;2023-08-07T13:27:00;2;2;
79117;PMS7003;68523;51.336;-0.846;2023-08-07T13:30:00;2;2;
79117;PMS7003;68523;51.336;-0.846;2023-08-07T13:33:00;1;1;
79117;PMS7003;68523;51.336;-0.846;2023-08-07T13:36:00;1;1;
79117;PMS7003;68523;51.336;-0.846;2023-08-07T13:39:00;1;1;
79117;PMS7003;68523;51.336;-0.846;2023-08-07T13:42:00;0;0;
79117;PMS7003;68523;51.336;-0.846;2023-08-07T13:45:01;0;0;
79117;PMS7003;68523;51.336;-0.846;2023-08-07T13:48:00;2;2;
79117;PMS7003;68523;51.336;-0.846;2023-08-07T13:51:00;2;2;
79117;PMS7003;68523;51.336;-0.846;2023-08-07T13:54:00;2;2;
79117;PMS7003;68523;51.336;-0.846;2023-08-07T13:57:00;2;2;
79117;PMS7003;68523;51.336;-0.846;2023-08-07T14:00:00;2;2;
79117;PMS7003;68523;51.336;-0.846;2023-08-07T14:03:00;2;2;
79117;PMS7003;68523;51.336;-0.846;2023-08-07T14:06:00;2;2;
79117;PMS7003;68523;51.336;-0.846;2023-08-07T14:09:00;2;1;
79117;PMS7003;68523;51.336;-0.846;2023-08-07T14:12:00;2;2;
79117;PMS7003;68523;51.336;-0.846;2023-08-07T14:15:00;2;2;
79117;PMS7003;68523;51.336;-0.846;2023-08-07T14:18:00;4;1;
79117;PMS7003;68523;51.336;-0.846;2023-08-07T14:21:00;4;1;
79117;PMS7003;68523;51.336;-0.846;2023-08-07T14:24:00;1;1;
79117;PMS7003;68523;51.336;-0.846;2023-08-07T14:27:00;2;1;
79117;PMS7003;68523;51.336;-0.846;2023-08-07T14:30:00;2;1;
79117;PMS7003;68523;51.336;-0.846;2023-08-07T14:33:00;3;3;
79117;PMS7003;68523;51.336;-0.846;2023-08-07T14:36:00;3;3;
79117;PMS7003;68523;51.336;-0.846;2023-08-07T14:39:00;3;3;
79117;PMS7003;68523;51.336;-0.846;2023-08-07T14:42:00;3;3;
79117;PMS7003;68523;51.336;-0.846;2023-08-07T14:45:00;3;3;
79117;PMS7003;68523;51.336;-0.846;2023-08-07T14:48:00;5;5;
79117;PMS7003;68523;51.336;-0.846;2023-08-07T14:51:00;5;5;
79117;PMS7003;68523;51.336;-0.846;2023-08-07T14:54:00;5;4;
79117;PMS7003;68523;51.336;-0.846;2023-08-07T14:57:00;3;3;
79117;PMS7003;68523;51.336;-0.846;2023-08-07T15:00:00;3;3;
79117;PMS7003;68523;51.336;-0.846;2023-08-07T15:03:00;4;4;
79117;PMS7003;68523;51.336;-0.846;2023-08-07T15:06:00;4;4;
79117;PMS7003;68523;51.336;-0.846;2023-08-07T15:09:00;16;15;
79117;PMS7003;68523;51.336;-0.846;2023-08-07T15:12:00;54;44;
79117;PMS7003;68523;51.336;-0.846;2023-08-07T15:15:00;54;44;
79117;PMS7003;68523;51.336;-0.846;2023-08-07T15:18:00;14;14;
79117;PMS7003;68523;51.336;-0.846;2023-08-07T15:21:00;14;14;
79117;PMS7003;68523;51.336;-0.846;2023-08-07T15:24:00;3;3;
79117;PMS7003;68523;51.336;-0.846;2023-08-07T15:27:00;2;2;
79117;PMS7003;68523;51.336;-0.846;2023-08-07T15:30:00;2;2;
79117;PMS7003;68523;51.336;-0.846;2023-08-07T15:33:00;3;2;
79117;PMS7003;68523;51.336;-0.846;2023-08-07T15:36:00;3;2;
79117;PMS7003;68523;51.336;-0.846;2023-08-07T15:39:00;7;7;
79117;PMS7003;68523;51.336;-0.846;2023-08-07T15:42:00;7;7;
79117;PMS7003;68523;51.336;-0.846;2023-08-07T15:45:00;3;3;
79117;PMS7003;68523;51.336;-0.846;2023-08-07T15:48:00;3;3;
79117;PMS7003;68523;51.336;-0.846;2023-08-07T15:51:00;3;3;
79117;PMS7003;68523;51.336;-0.846;2023-08-07T15:54:00;3;1;
79117;PMS7003;68523;51.336;-0.846;2023-08-07T15:57:00;3;1;
79117;PMS7003;68523;51.336;-0.846;2023-08-07T16:00:00;3;3;
79117;PMS7003;68523;51.336;-0.846;2023-08-07T16:03:00;2;2;
79117;PMS7003;68523;51.336;-0.846;2023-08-07T16:06:00;2;2;
79117;PMS7003;68523;51.336;-0.846;2023-08-07T16:09:00;3;1;
79117;PMS7003;68523;51.336;-0.846;2023-08-07T16:12:00;3;1;
79117;PMS7003;68523;51.336;-0.846;2023-08-07T16:15:00;3;2;
79117;PMS7003;68523;51.336;-0.846;2023-08-07T16:18:00;2;2;
79117;PMS7003;68523;51.336;-0.846;2023-08-07T16:21:00;2;2;
79117;PMS7003;68523;51.336;-0.846;2023-08-07T16:24:00;2;2;
79117;PMS7003;68523;51.336;-0.846;2023-08-07T16:27:00;2;2;
79117;PMS7003;68523;51.336;-0.846;2023-08-07T16:30:00;3;2;
79117;PMS7003;68523;51.336;-0.846;2023-08-07T16:33:00;3;3;
79117;PMS7003;68523;51.336;-0.846;2023-08-07T16:36:00;3;3;
79117;PMS7003;68523;51.336;-0.846;2023-08-07T16:39:00;3;2;
79117;PMS7003;68523;51.336;-0.846;2023-08-07T16:42:00;3;2;
79117;PMS7003;68523;51.336;-0.846;2023-08-07T16:45:01;4;4;
79117;PMS7003;68523;51.336;-0.846;2023-08-07T16:48:00;14;12;
79117;PMS7003;68523;51.336;-0.846;2023-08-07T16:51:00;14;12;
79117;PMS7003;68523;51.336;-0.846;2023-08-07T16:54:00;3;3;
79117;PMS7003;68523;51.336;-0.846;2023-08-07T16:57:00;3;3;
79117;PMS7003;68523;51.336;-0.846;2023-08-07T17:00:00;3;2;
79117;PMS7003;68523;51.336;-0.846;2023-08-07T17:03:00;2;2;
79117;PMS7003;68523;51.336;-0.846;2023-08-07T17:06:00;2;2;
79117;PMS7003;68523;51.336;-0.846;2023-08-07T17:09:00;6;3;
79117;PMS7003;68523;51.336;-0.846;2023-08-07T17:12:00;6;3;
79117;PMS7003;68523;51.336;-0.846;2023-08-07T17:15:00;15;15;
79117;PMS7003;68523;51.336;-0.846;2023-08-07T17:18:00;12;11;
79117;PMS7003;68523;51.336;-0.846;2023-08-07T17:21:00;12;11;
79117;PMS7003;68523;51.336;-0.846;2023-08-07T17:24:00;5;3;
79117;PMS7003;68523;51.336;-0.846;2023-08-07T17:27:00;5;3;
79117;PMS7003;68523;51.336;-0.846;2023-08-07T17:30:00;3;2;
79117;PMS7003;68523;51.336;-0.846;2023-08-07T17:33:00;5;1;
79117;PMS7003;68523;51.336;-0.846;2023-08-07T17:36:00;5;1;
79117;PMS7003;68523;51.336;-0.846;2023-08-07T17:39:00;5;4;
79117;PMS7003;68523;51.336;-0.846;2023-08-07T17:42:00;5;4;
79117;PMS7003;68523;51.336;-0.846;2023-08-07T17:45:00;5;2;
79117;PMS7003;68523;51.336;-0.846;2023-08-07T17:48:00;2;2;
79117;PMS7003;68523;51.336;-0.846;2023-08-07T17:51:00;2;2;
79117;PMS7003;68523;51.336;-0.846;2023-08-07T17:54:00;2;2;
79117;PMS7003;68523;51.336;-0.846;2023-08-07T17:57:00;2;2;
79117;PMS7003;68523;51.336;-0.846;2023-08-07T18:00:00;1;1;
79117;PMS7003;68523;51.336;-0.846;2023-08-07T18:03:00;3;3;
79117;PMS7003;68523;51.336;-0.846;2023-08-07T18:06:00;3;3;
79117;PMS7003;68523;51.336;-0.846;2023-08-07T18:09:00;2;2;
79117;PMS7003;68523;51.336;-0.846;2023-08-07T18:12:00;2;2;
79117;PMS7003;68523;51.336;-0.846;2023-08-07T18:15:00;5;4;
79117;PMS7003;68523;51.336;-0.846;2023-08-07T18:18:00;4;3;
79117;PMS7003;68523;51.336;-0.846;2023-08-07T18:21:00;4;3;
79117;PMS7003;68523;51.336;-0.846;2023-08-07T18:24:00;7;6;
79117;PMS7003;68523;51.336;-0.846;2023-08-07T18:27:00;7;6;
79117;PMS7003;68523;51.336;-0.846;2023-08-07T18:30:00;3;3;
79117;PMS7003;68523;51.336;-0.846;2023-08-07T18:33:00;3;2;
79117;PMS7003;68523;51.336;-0.846;2023-08-07T18:36:00;3;2;
79117;PMS7003;68523;51.336;-0.846;2023-08-07T18:39:00;2;1;
79117;PMS7003;68523;51.336;-0.846;2023-08-07T18:42:00;2;1;
79117;PMS7003;68523;51.336;-0.846;2023-08-07T18:45:00;2;1;
79117;PMS7003;68523;51.336;-0.846;2023-08-07T18:48:00;2;2;
79117;PMS7003;68523;51.336;-0.846;2023-08-07T18:51:00;2;2;
79117;PMS7003;68523;51.336;-0.846;2023-08-07T18:54:00;2;2;
79117;PMS7003;68523;51.336;-0.846;2023-08-07T18:57:00;2;2;
79117;PMS7003;68523;51.336;-0.846;2023-08-07T19:00:00;6;3;
79117;PMS7003;68523;51.336;-0.846;2023-08-07T19:03:00;3;3;
79117;PMS7003;68523;51.336;-0.846;2023-08-07T19:06:00;3;3;
79117;PMS7003;68523;51.336;-0.846;2023-08-07T19:09:00;2;2;
79117;PMS7003;68523;51.336;-0.846;2023-08-07T19:12:00;2;2;
79117;PMS7003;68523;51.336;-0.846;2023-08-07T19:15:01;5;5;
79117;PMS7003;68523;51.336;-0.846;2023-08-07T19:18:00;6;5;
79117;PMS7003;68523;51.336;-0.846;2023-08-07T19:21:00;6;5;
79117;PMS7003;68523;51.336;-0.846;2023-08-07T19:24:00;5;4;
79117;PMS7003;68523;51.336;-0.846;2023-08-07T19:27:00;5;4;
79117;PMS7003;68523;51.336;-0.846;2023-08-07T19:30:00;5;5;
79117;PMS7003;68523;51.336;-0.846;2023-08-07T19:33:00;6;6;
79117;PMS7003;68523;51.336;-0.846;2023-08-07T19:36:00;6;6;
79117;PMS7003;68523;51.336;-0.846;2023-08-07T19:39:00;12;8;
79117;PMS7003;68523;51.336;-0.846;2023-08-07T19:42:00;12;8;
79117;PMS7003;68523;51.336;-0.846;2023-08-07T19:45:00;13;9;
79117;PMS7003;68523;51.336;-0.846;2023-08-07T19:48:00;8;8;
79117;PMS7003;68523;51.336;-0.846;2023-08-07T19:51:00;8;8;